Da Xian, China
Current Conditions -  °F | °C
As of 12:00 AM on Friday 31 Oct 2014 (Local Time) from ZUCK Reporting Station
Broken Clouds Broken Clouds  
Wind Chill: 66°   Ceiling: 3300
Heat Index: 66°   Visibility: 6mi
Dew Point: 59°   Wind: 9mph
Humidity: 78%   Direction: 10°N
Pressure: 29.97"   Gusts: NA
Location:  31.2°N, 107.5°E
Report Text: ZUCK 301600Z 01004MPS 9999 BKN033 19/15 Q1015 NOSIG
Loading
Personal Weather Stations






























Interactive Weather Map
Tropical Storm Tracking
New forecast layout! Learn more

10-Day Weather Forecast

Advertisements
Track Severe Weather on mobile